createdAt,value
2019-06-10T00:00:26.777Z,42.48
2019-06-10T00:03:02.865Z,42.46
2019-06-10T00:05:36.018Z,42.56
2019-06-10T00:08:12.032Z,42.65
2019-06-10T00:10:45.129Z,42.71
2019-06-10T00:13:20.940Z,42.71
2019-06-10T00:15:56.662Z,42.85
2019-06-10T00:18:41.499Z,42.78
2019-06-10T00:21:07.061Z,42.91
2019-06-10T00:23:42.076Z,42.87
2019-06-10T00:26:15.879Z,42.93
2019-06-10T00:28:51.321Z,43.02
2019-06-10T00:31:25.270Z,42.99
2019-06-10T00:34:01.322Z,43.01
2019-06-10T00:36:34.627Z,43.01
2019-06-10T00:39:13.113Z,43.08
2019-06-10T00:41:44.773Z,43.12
2019-06-10T00:44:20.527Z,43.17
2019-06-10T00:46:54.170Z,43.21
2019-06-10T00:49:27.979Z,43.25
2019-06-10T00:52:04.189Z,43.29
2019-06-10T00:54:37.755Z,43.29
2019-06-10T00:57:12.381Z,43.36
2019-06-10T00:59:47.197Z,43.36
2019-06-10T01:02:21.464Z,43.47
2019-06-10T01:04:55.291Z,43.46
2019-06-10T01:07:31.138Z,43.42
2019-06-10T01:10:05.094Z,43.48
2019-06-10T01:12:40.694Z,43.45
2019-06-10T01:15:15.290Z,43.48
2019-06-10T01:17:51.128Z,43.48
2019-06-10T01:20:24.748Z,43.51
2019-06-10T01:22:58.441Z,43.52
2019-06-10T01:25:32.185Z,43.52
2019-06-10T01:28:05.955Z,43.51
2019-06-10T01:30:41.280Z,43.57
2019-06-10T01:33:16.418Z,43.57
2019-06-10T01:35:51.465Z,43.64
2019-06-10T01:38:25.407Z,43.63
2019-06-10T01:41:01.330Z,43.66
2019-06-10T01:43:34.847Z,43.67
2019-06-10T01:46:11.323Z,43.65
2019-06-10T01:48:48.144Z,43.66
2019-06-10T01:51:21.302Z,43.72
2019-06-10T01:53:55.603Z,43.73
2019-06-10T01:56:31.341Z,43.73
2019-06-10T01:59:04.823Z,43.76
2019-06-10T02:01:57.393Z,43.85
2019-06-10T02:04:32.081Z,43.82
2019-06-10T02:07:06.182Z,43.85
2019-06-10T02:09:41.090Z,43.86
2019-06-10T02:12:17.554Z,43.86
2019-06-10T02:14:50.959Z,43.84
2019-06-10T02:17:24.671Z,43.90
2019-06-10T02:20:00.982Z,43.86
2019-06-10T02:22:33.997Z,43.88
2019-06-10T02:25:07.871Z,43.86
2019-06-10T02:27:41.672Z,43.90
2019-06-10T02:30:29.777Z,43.89
2019-06-10T02:32:52.380Z,43.92
2019-06-10T02:35:38.734Z,43.96
2019-06-10T02:38:03.517Z,43.98
2019-06-10T02:40:37.545Z,44.00
2019-06-10T02:43:17.462Z,44.05
2019-06-10T02:45:48.806Z,44.08
2019-06-10T02:48:30.141Z,44.08
2019-06-10T02:51:07.638Z,44.12
2019-06-10T02:53:43.372Z,44.14
2019-06-10T02:56:17.757Z,44.15
2019-06-10T02:58:53.527Z,44.21
2019-06-10T03:01:32.560Z,44.27
2019-06-10T03:04:04.500Z,44.28
2019-06-10T03:06:40.254Z,44.27
2019-06-10T03:09:14.377Z,44.28
2019-06-10T03:11:48.586Z,44.29
2019-06-10T03:14:25.278Z,44.32
2019-06-10T03:17:03.163Z,44.31
2019-06-10T03:19:46.881Z,44.32
2019-06-10T03:22:13.117Z,44.37
2019-06-10T03:24:47.058Z,44.39
2019-06-10T03:27:23.151Z,44.39
2019-06-10T03:29:56.359Z,44.45
2019-06-10T03:32:36.562Z,44.46
2019-06-10T03:35:06.168Z,44.47
2019-06-10T03:37:42.223Z,44.47
2019-06-10T03:40:16.487Z,44.51
2019-06-10T03:42:52.017Z,44.53
2019-06-10T03:45:27.200Z,44.48
2019-06-10T03:48:03.757Z,44.54
2019-06-10T03:50:37.385Z,44.56
2019-06-10T03:53:12.851Z,44.56
2019-06-10T03:55:46.953Z,44.60
2019-06-10T03:58:22.063Z,44.63
2019-06-10T04:00:56.391Z,44.64
2019-06-10T04:03:30.027Z,44.68
2019-06-10T04:06:04.099Z,44.68
2019-06-10T04:08:37.943Z,44.64
2019-06-10T04:11:12.251Z,44.77
2019-06-10T04:13:46.352Z,44.74
2019-06-10T04:16:22.261Z,44.75
2019-06-10T04:18:55.818Z,44.76
2019-06-10T04:21:29.644Z,44.70
2019-06-10T04:24:03.421Z,44.79
2019-06-10T04:26:38.179Z,44.79
2019-06-10T04:29:12.930Z,44.84
2019-06-10T04:31:46.885Z,44.86
2019-06-10T04:34:23.762Z,44.87
2019-06-10T04:36:55.980Z,44.92
2019-06-10T04:39:29.831Z,45.02
2019-06-10T04:42:03.570Z,45.02
2019-06-10T04:44:37.381Z,44.95
2019-06-10T04:47:12.083Z,44.93
2019-06-10T04:49:45.869Z,44.98
2019-06-10T04:52:21.237Z,44.77
2019-06-10T04:54:55.259Z,44.89
2019-06-10T04:57:29.648Z,44.69
2019-06-10T05:00:11.011Z,44.61
2019-06-10T05:02:38.971Z,44.73
2019-06-10T05:05:13.207Z,44.56
2019-06-10T05:07:47.418Z,44.55
2019-06-10T05:10:23.697Z,44.71
2019-06-10T05:12:56.849Z,44.83
2019-06-10T05:15:34.151Z,44.72
2019-06-10T05:18:06.734Z,44.63
2019-06-10T05:20:52.004Z,44.33
2019-06-10T05:23:16.085Z,44.36
2019-06-10T05:25:52.274Z,44.18
2019-06-10T05:28:25.993Z,44.20
2019-06-10T05:31:02.807Z,44.16
2019-06-10T05:33:36.251Z,44.13
2019-06-10T05:36:09.914Z,44.03
2019-06-10T05:38:43.797Z,44.10
2019-06-10T05:41:17.737Z,44.08
2019-06-10T05:43:52.444Z,44.10
2019-06-10T05:46:27.312Z,44.25
2019-06-10T05:49:03.103Z,44.02
2019-06-10T05:51:37.121Z,43.96
2019-06-10T05:54:12.786Z,44.00
2019-06-10T05:56:46.703Z,44.05
2019-06-10T05:59:22.611Z,44.91
2019-06-10T06:01:56.131Z,44.28
2019-06-10T06:04:32.584Z,44.67
2019-06-10T06:07:05.636Z,44.32
2019-06-10T06:09:39.527Z,44.19
2019-06-10T06:12:14.284Z,44.23
2019-06-10T06:14:48.249Z,44.33
2019-06-10T06:17:23.603Z,44.52
2019-06-10T06:19:57.755Z,44.31
2019-06-10T06:22:34.317Z,44.43
2019-06-10T06:25:07.810Z,44.59
2019-06-10T06:27:42.365Z,45.09
2019-06-10T06:30:18.938Z,44.84
2019-06-10T06:32:53.338Z,44.71
2019-06-10T06:35:28.457Z,44.62
2019-06-10T06:38:02.688Z,44.65
2019-06-10T06:40:37.590Z,44.70
2019-06-10T06:43:12.571Z,44.44
2019-06-10T06:45:46.384Z,45.18
2019-06-10T06:48:22.603Z,45.44
2019-06-10T06:51:03.988Z,46.03
2019-06-10T06:53:39.556Z,45.40
2019-06-10T06:56:07.134Z,45.28
2019-06-10T06:58:43.236Z,45.16
2019-06-10T07:01:17.261Z,45.27
2019-06-10T07:03:53.585Z,45.18
2019-06-10T07:06:27.776Z,45.13
2019-06-10T07:09:07.744Z,45.12
2019-06-10T07:11:39.859Z,45.19
2019-06-10T07:14:14.967Z,45.32
2019-06-10T07:16:48.942Z,45.29
2019-06-10T07:19:22.791Z,45.31
2019-06-10T07:22:08.742Z,45.36
2019-06-10T07:24:36.009Z,45.35
2019-06-10T07:27:08.575Z,45.40
2019-06-10T07:29:46.929Z,45.47
2019-06-10T07:32:18.468Z,45.44
2019-06-10T07:34:52.827Z,45.48
2019-06-10T07:37:26.829Z,45.41
2019-06-10T07:40:02.908Z,45.45
2019-06-10T07:42:37.462Z,45.61
2019-06-10T07:45:13.193Z,45.69
2019-06-10T07:47:47.223Z,45.56
2019-06-10T07:50:22.681Z,45.72
2019-06-10T07:52:58.670Z,45.60
2019-06-10T07:55:33.337Z,45.86
2019-06-10T07:58:08.597Z,45.78
2019-06-10T08:00:46.479Z,45.84
2019-06-10T08:03:19.294Z,45.49
2019-06-10T08:05:54.975Z,45.26
2019-06-10T08:08:29.069Z,45.01
2019-06-10T08:11:03.655Z,44.97
2019-06-10T08:13:37.678Z,44.71
2019-06-10T08:16:13.066Z,44.84
2019-06-10T08:19:16.138Z,44.96
2019-06-10T08:21:23.781Z,44.85
2019-06-10T08:23:57.815Z,44.70
2019-06-10T08:26:32.423Z,44.71
2019-06-10T08:29:06.701Z,44.80
2019-06-10T08:31:43.661Z,44.86
2019-06-10T08:34:16.754Z,44.91
2019-06-10T08:36:54.189Z,44.90
2019-06-10T08:39:26.868Z,44.84
2019-06-10T08:42:03.146Z,44.64
2019-06-10T08:44:36.833Z,44.44
2019-06-10T08:47:12.426Z,44.61
2019-06-10T08:49:49.029Z,44.62
2019-06-10T08:52:23.732Z,44.94
2019-06-10T08:54:57.971Z,43.77
2019-06-10T08:57:33.499Z,43.99
2019-06-10T09:00:12.558Z,44.21
2019-06-10T09:02:48.360Z,44.31
2019-06-10T09:05:23.255Z,43.77
2019-06-10T09:07:57.093Z,43.70
2019-06-10T09:10:33.777Z,42.83
2019-06-10T09:13:07.403Z,42.36
2019-06-10T09:15:43.767Z,41.68
2019-06-10T09:18:20.074Z,42.00
2019-06-10T09:20:55.989Z,42.59
2019-06-10T09:23:29.373Z,43.03
2019-06-10T09:26:05.080Z,41.88
2019-06-10T09:28:45.034Z,42.28
2019-06-10T09:31:15.992Z,42.80
2019-06-10T09:33:53.390Z,42.47
2019-06-10T09:36:25.446Z,42.59
2019-06-10T09:38:59.118Z,42.45
2019-06-10T09:41:40.068Z,41.19
2019-06-10T09:44:08.532Z,40.38
2019-06-10T09:46:45.879Z,41.36
2019-06-10T09:49:19.052Z,41.01
2019-06-10T09:51:57.364Z,40.48
2019-06-10T09:54:29.874Z,40.64
2019-06-10T09:57:03.955Z,40.94
2019-06-10T09:59:37.747Z,41.33
2019-06-10T10:02:12.568Z,41.68
2019-06-10T10:04:50.521Z,41.81
2019-06-10T10:07:22.636Z,40.75
2019-06-10T10:09:57.483Z,40.22
2019-06-10T10:12:33.156Z,40.40
2019-06-10T10:15:23.296Z,40.75
2019-06-10T10:17:50.763Z,40.85
2019-06-10T10:20:24.037Z,40.18
2019-06-10T10:22:57.767Z,39.54
2019-06-10T10:25:32.820Z,39.76
2019-06-10T10:28:09.487Z,40.70
2019-06-10T10:30:46.029Z,40.06
2019-06-10T10:33:19.095Z,40.25
2019-06-10T10:35:52.803Z,39.30
2019-06-10T10:38:26.633Z,39.38
2019-06-10T10:41:04.202Z,39.62
2019-06-10T10:43:37.840Z,39.84
2019-06-10T10:46:13.975Z,39.55
2019-06-10T10:48:47.132Z,38.61
2019-06-10T10:51:23.059Z,37.63
2019-06-10T10:54:19.013Z,36.84
2019-06-10T10:56:33.974Z,37.25
2019-06-10T10:59:07.414Z,37.47
2019-06-10T11:01:43.745Z,38.42
2019-06-10T11:04:16.996Z,38.31
2019-06-10T11:06:54.401Z,38.03
2019-06-10T11:09:26.938Z,37.83
2019-06-10T11:12:03.376Z,38.56
2019-06-10T11:14:36.215Z,39.21
2019-06-10T11:17:09.975Z,38.67
2019-06-10T11:19:43.735Z,37.60
2019-06-10T11:22:17.389Z,37.58
2019-06-10T11:24:53.581Z,35.88
2019-06-10T11:27:26.602Z,35.08
2019-06-10T11:30:02.432Z,34.46
2019-06-10T11:32:36.311Z,34.15
2019-06-10T11:35:12.187Z,34.27
2019-06-10T11:37:46.749Z,34.65
2019-06-10T11:40:22.415Z,33.69
2019-06-10T11:42:59.481Z,34.26
2019-06-10T11:45:32.849Z,33.89
2019-06-10T11:48:07.012Z,34.90
2019-06-10T11:50:42.833Z,35.91
2019-06-10T11:53:17.673Z,35.51
2019-06-10T11:55:51.785Z,35.55
2019-06-10T11:58:25.719Z,34.69
2019-06-10T12:01:03.064Z,34.98
2019-06-10T12:03:35.779Z,35.29
2019-06-10T12:06:09.617Z,34.95
2019-06-10T12:08:43.907Z,35.23
2019-06-10T12:11:17.835Z,35.40
2019-06-10T12:13:53.229Z,35.66
2019-06-10T12:19:03.704Z,36.28
2019-06-10T12:21:37.502Z,36.36
2019-06-10T12:24:22.883Z,36.80
2019-06-10T12:26:58.378Z,37.09
2019-06-10T12:29:31.314Z,36.27
2019-06-10T12:32:07.389Z,35.68
2019-06-10T12:34:40.721Z,35.69
2019-06-10T12:37:15.909Z,36.63
2019-06-10T12:39:49.895Z,36.99
2019-06-10T12:42:23.934Z,37.33
2019-06-10T12:44:58.910Z,36.69
2019-06-10T12:47:33.424Z,37.20
2019-06-10T12:50:07.820Z,37.66
2019-06-10T12:52:41.641Z,37.52
2019-06-10T12:55:16.323Z,37.46
2019-06-10T12:57:52.163Z,37.18
2019-06-10T13:00:26.517Z,37.32
2019-06-10T13:03:03.733Z,37.39
2019-06-10T13:05:35.937Z,37.83
2019-06-10T13:08:09.731Z,38.05
2019-06-10T13:10:43.675Z,37.72
2019-06-10T13:13:17.727Z,37.22
2019-06-10T13:15:53.153Z,37.26
2019-06-10T13:18:26.907Z,37.20
2019-06-10T13:21:07.290Z,37.52
2019-06-10T13:23:36.376Z,37.68
2019-06-10T13:26:15.076Z,37.37
2019-06-10T13:28:45.480Z,37.19
2019-06-10T13:31:19.313Z,37.42
2019-06-10T13:33:53.107Z,37.84
2019-06-10T13:36:26.971Z,38.13
2019-06-10T13:39:03.974Z,38.31
2019-06-10T13:41:36.248Z,38.19
2019-06-10T13:44:15.203Z,37.73
2019-06-10T13:46:46.638Z,37.60
2019-06-10T13:49:25.181Z,37.98
2019-06-10T13:51:56.005Z,38.11
2019-06-10T13:54:30.856Z,37.83
2019-06-10T13:57:06.595Z,37.90
2019-06-10T13:59:42.954Z,37.01
2019-06-10T14:02:15.598Z,37.36
2019-06-10T14:04:49.420Z,36.98
2019-06-10T14:07:23.457Z,36.93
2019-06-10T14:09:58.353Z,37.22
2019-06-10T14:12:32.450Z,37.67
2019-06-10T14:15:09.356Z,37.70
2019-06-10T14:17:42.470Z,37.94
2019-06-10T14:20:17.699Z,37.54
2019-06-10T14:22:52.998Z,37.89
2019-06-10T14:25:26.825Z,37.96
2019-06-10T14:28:03.208Z,38.04
2019-06-10T14:30:36.230Z,38.20
2019-06-10T14:33:16.660Z,38.66
2019-06-10T14:35:49.992Z,38.89
2019-06-10T14:38:23.905Z,38.96
2019-06-10T14:40:57.660Z,39.09
2019-06-10T14:43:33.159Z,39.29
2019-06-10T14:46:07.414Z,39.03
2019-06-10T14:48:42.666Z,38.81
2019-06-10T14:51:17.261Z,38.87
2019-06-10T14:53:51.172Z,38.74
2019-06-10T14:56:24.862Z,39.08
2019-06-10T14:58:58.675Z,39.03
2019-06-10T15:01:32.883Z,39.18
2019-06-10T15:04:07.863Z,39.19
2019-06-10T15:06:43.216Z,38.94
2019-06-10T15:09:19.833Z,39.11
2019-06-10T15:11:55.369Z,38.72
2019-06-10T15:14:29.187Z,38.38
2019-06-10T15:17:03.038Z,38.34
2019-06-10T15:19:36.663Z,38.84
2019-06-10T15:22:12.632Z,38.34
2019-06-10T15:24:46.130Z,38.67
2019-06-10T15:27:27.551Z,38.89
2019-06-10T15:29:55.419Z,38.61
2019-06-10T15:32:34.669Z,38.71
2019-06-10T15:35:04.974Z,39.14
2019-06-10T15:37:38.646Z,39.21
2019-06-10T15:40:14.028Z,39.28
2019-06-10T15:42:47.932Z,39.00
2019-06-10T15:45:23.120Z,38.88
2019-06-10T15:47:56.962Z,38.92
2019-06-10T15:50:32.366Z,38.85
2019-06-10T15:53:06.293Z,38.66
2019-06-10T15:56:09.230Z,38.42
2019-06-10T15:58:17.377Z,38.69
2019-06-10T16:00:54.336Z,38.83
2019-06-10T16:03:28.119Z,38.40
2019-06-10T16:06:03.203Z,38.46
2019-06-10T16:08:38.307Z,38.38
2019-06-10T16:11:15.406Z,38.31
2019-06-10T16:13:47.688Z,38.29
2019-06-10T16:16:21.445Z,38.48
2019-06-10T16:18:55.419Z,38.65
2019-06-10T16:21:30.156Z,38.68
2019-06-10T16:24:03.816Z,38.75
2019-06-10T16:26:37.554Z,38.89
2019-06-10T16:29:12.282Z,38.92
2019-06-10T16:31:46.097Z,39.00
2019-06-10T16:34:21.239Z,39.13
2019-06-10T16:36:55.334Z,39.36
2019-06-10T16:39:28.961Z,39.43
2019-06-10T16:42:03.175Z,39.61
2019-06-10T16:44:38.414Z,39.52
2019-06-10T16:47:12.580Z,39.57
2019-06-10T16:49:47.608Z,39.69
2019-06-10T16:52:25.657Z,39.57
2019-06-10T16:54:59.278Z,39.68
2019-06-10T16:57:35.205Z,39.60
2019-06-10T17:00:11.995Z,39.43
2019-06-10T17:02:44.886Z,39.72
2019-06-10T17:05:18.575Z,39.56
2019-06-10T17:07:52.741Z,39.46
2019-06-10T17:10:28.238Z,39.56
2019-06-10T17:13:04.584Z,40.09
2019-06-10T17:15:38.264Z,39.74
2019-06-10T17:18:13.110Z,39.64
2019-06-10T17:20:47.409Z,40.66
2019-06-10T17:23:28.057Z,40.87
2019-06-10T17:26:01.946Z,40.76
2019-06-10T17:28:37.044Z,40.80
2019-06-10T17:31:11.057Z,40.67
2019-06-10T17:33:44.834Z,40.44
2019-06-10T17:36:18.618Z,40.39
2019-06-10T17:38:52.893Z,40.61
2019-06-10T17:41:29.327Z,40.61
2019-06-10T17:44:02.734Z,40.57
2019-06-10T17:46:36.454Z,40.65
2019-06-10T17:49:13.088Z,40.69
2019-06-10T17:51:46.727Z,41.15
2019-06-10T17:54:22.508Z,41.66
2019-06-10T17:56:55.995Z,41.79
2019-06-10T17:59:30.893Z,41.47
2019-06-10T18:02:05.319Z,41.28
2019-06-10T18:04:38.996Z,41.11
2019-06-10T18:07:13.189Z,41.04
2019-06-10T18:09:47.015Z,41.06
2019-06-10T18:12:22.404Z,40.98
2019-06-10T18:14:57.571Z,41.04
2019-06-10T18:17:34.796Z,40.94
2019-06-10T18:20:08.223Z,42.02
2019-06-10T18:22:41.985Z,41.80
2019-06-10T18:25:15.741Z,41.48
2019-06-10T18:27:49.636Z,41.61
2019-06-10T18:30:23.557Z,41.68
2019-06-10T18:32:57.199Z,41.90
2019-06-10T18:35:34.135Z,41.72
2019-06-10T18:38:06.605Z,42.06
2019-06-10T18:40:42.848Z,42.32
2019-06-10T18:43:18.260Z,41.85
2019-06-10T18:45:53.233Z,41.94
2019-06-10T18:48:29.040Z,42.41
2019-06-10T18:51:03.169Z,42.29
2019-06-10T18:53:37.090Z,42.22
2019-06-10T18:56:13.006Z,42.40
2019-06-10T18:58:46.991Z,42.42
2019-06-10T19:01:22.663Z,42.42
2019-06-10T19:03:56.348Z,42.81
2019-06-10T19:06:31.294Z,42.92
2019-06-10T19:09:07.154Z,42.23
2019-06-10T19:11:43.107Z,43.05
2019-06-10T19:14:16.473Z,43.33
2019-06-10T19:16:52.284Z,43.26
2019-06-10T19:19:25.747Z,43.60
2019-06-10T19:22:06.206Z,43.45
2019-06-10T19:24:36.725Z,43.32
2019-06-10T19:27:10.530Z,43.23
2019-06-10T19:29:50.746Z,43.31
2019-06-10T19:32:19.896Z,43.25
2019-06-10T19:34:53.910Z,43.52
2019-06-10T19:37:27.702Z,43.25
2019-06-10T19:40:01.460Z,43.22
2019-06-10T19:42:35.985Z,43.33
2019-06-10T19:45:12.521Z,44.23
2019-06-10T19:47:46.844Z,43.85
2019-06-10T19:50:21.045Z,43.36
2019-06-10T19:52:54.930Z,43.87
2019-06-10T19:55:28.566Z,43.72
2019-06-10T19:58:03.665Z,43.47
2019-06-10T20:00:37.816Z,43.52
2019-06-10T20:03:12.034Z,43.57
2019-06-10T20:05:47.140Z,43.49
2019-06-10T20:08:22.673Z,43.41
2019-06-10T20:10:56.714Z,43.48
2019-06-10T20:13:32.430Z,43.44
2019-06-10T20:16:06.089Z,43.98
2019-06-10T20:18:40.508Z,43.79
2019-06-10T20:21:15.656Z,43.98
2019-06-10T20:23:49.324Z,44.07
2019-06-10T20:26:23.196Z,44.19
2019-06-10T20:28:56.848Z,44.18
2019-06-10T20:31:32.529Z,43.85
2019-06-10T20:34:06.111Z,43.84
2019-06-10T20:36:42.444Z,43.88
2019-06-10T20:39:15.650Z,43.75
2019-06-10T20:41:52.379Z,43.79
2019-06-10T20:44:24.917Z,43.88
2019-06-10T20:46:58.680Z,44.07
2019-06-10T20:49:34.270Z,43.91
2019-06-10T20:52:12.353Z,43.81
2019-06-10T20:54:46.432Z,43.96
2019-06-10T20:57:19.266Z,43.94
2019-06-10T20:59:53.138Z,43.82
2019-06-10T21:02:26.981Z,43.92
2019-06-10T21:05:02.773Z,44.13
2019-06-10T21:07:36.239Z,44.17
2019-06-10T21:10:10.192Z,44.20
2019-06-10T21:12:44.908Z,44.59
2019-06-10T21:15:19.595Z,45.04
2019-06-10T21:17:53.438Z,45.12
2019-06-10T21:20:27.310Z,45.08
2019-06-10T21:23:03.034Z,45.28
2019-06-10T21:25:36.528Z,45.34
2019-06-10T21:28:12.978Z,45.49
2019-06-10T21:30:53.383Z,45.44
2019-06-10T21:33:23.510Z,45.29
2019-06-10T21:35:59.164Z,45.29
2019-06-10T21:38:32.962Z,45.23
2019-06-10T21:41:06.780Z,45.63
2019-06-10T21:43:42.514Z,45.43
2019-06-10T21:46:15.958Z,45.28
2019-06-10T21:48:50.569Z,45.14
2019-06-10T21:51:24.363Z,45.00
2019-06-10T21:53:58.457Z,45.02
2019-06-10T21:56:32.946Z,44.96
2019-06-10T21:59:06.868Z,44.98
2019-06-10T22:01:42.959Z,44.86
2019-06-10T22:04:16.278Z,44.97
2019-06-10T22:06:52.907Z,44.98
2019-06-10T22:09:25.934Z,44.93
2019-06-10T22:11:59.699Z,45.07
2019-06-10T22:14:33.422Z,45.09
2019-06-10T22:17:07.415Z,45.09
2019-06-10T22:19:42.732Z,45.14
2019-06-10T22:22:16.653Z,45.13
2019-06-10T22:24:51.296Z,45.03
2019-06-10T22:27:26.048Z,45.18
2019-06-10T22:30:02.688Z,45.21
2019-06-10T22:32:35.514Z,45.25
2019-06-10T22:35:09.375Z,45.31
2019-06-10T22:37:43.424Z,45.34
2019-06-10T22:40:17.152Z,45.34
2019-06-10T22:42:53.684Z,45.31
2019-06-10T22:45:26.480Z,45.29
2019-06-10T22:48:02.775Z,44.86
2019-06-10T22:50:35.905Z,44.86
2019-06-10T22:53:12.096Z,44.88
2019-06-10T22:55:45.166Z,45.02
2019-06-10T22:58:18.919Z,44.92
2019-06-10T23:00:56.232Z,45.37
2019-06-10T23:03:29.141Z,45.45
2019-06-10T23:06:04.773Z,45.42
2019-06-10T23:08:38.543Z,45.34
2019-06-10T23:11:12.995Z,45.31
2019-06-10T23:13:47.172Z,45.30
2019-06-10T23:16:22.244Z,45.66
2019-06-10T23:18:57.168Z,45.76
2019-06-10T23:21:31.581Z,45.51
2019-06-10T23:24:05.363Z,46.03
2019-06-10T23:26:39.176Z,45.74
2019-06-10T23:29:13.092Z,45.75
2019-06-10T23:31:53.997Z,45.67
2019-06-10T23:34:23.220Z,45.95
2019-06-10T23:36:58.758Z,45.59
2019-06-10T23:39:33.591Z,45.34
2019-06-10T23:42:07.586Z,45.28
2019-06-10T23:44:41.376Z,45.22
2019-06-10T23:47:15.231Z,45.18
2019-06-10T23:49:49.176Z,45.18
2019-06-10T23:52:22.924Z,45.12
2019-06-10T23:54:57.900Z,45.11
2019-06-10T23:57:32.937Z,45.15
